Time;durP1;ratioP1;P1;durP2;ratioP2;P2;SDS_P1;SDS_P2;PMS_P1;PMS_P2;Temp;Humidity;BMP_temperature;BMP_pressure;BME280_temperature;BME280_humidity;BME280_pressure;Samples;Min_cycle;Max_cycle;Signal;HPM_P1;HPM_P2
2022/04/11 00:00:54;;;;;;;7.95;5.22;;;6.50;99.90;;;;;;4915240;29;20448;-69
2022/04/11 00:03:21;;;;;;;9.27;4.57;;;6.40;99.90;;;;;;4915616;29;20083;-69
2022/04/11 00:05:48;;;;;;;9.85;5.15;;;6.40;99.90;;;;;;4914754;29;20087;-69
2022/04/11 00:08:16;;;;;;;6.50;4.32;;;6.40;99.90;;;;;;4914510;29;20056;-77
2022/04/11 00:10:43;;;;;;;15.50;5.72;;;6.30;99.90;;;;;;4915344;29;20059;-70
2022/04/11 00:13:10;;;;;;;9.60;4.45;;;6.20;99.90;;;;;;4896267;29;20044;-70
2022/04/11 00:15:39;;;;;;;7.22;4.80;;;6.20;99.90;;;;;;4914691;29;20052;-70
2022/04/11 00:18:07;;;;;;;9.32;5.47;;;6.20;99.90;;;;;;4914143;29;20492;-71
2022/04/11 00:20:34;;;;;;;7.85;4.97;;;6.20;99.90;;;;;;4913362;29;20048;-71
2022/04/11 00:23:02;;;;;;;7.97;4.72;;;6.20;99.90;;;;;;4910504;29;20048;-70
2022/04/11 00:25:29;;;;;;;9.85;4.93;;;6.30;99.90;;;;;;4914166;29;20095;-70
2022/04/11 00:27:56;;;;;;;9.95;5.55;;;6.30;99.90;;;;;;4914452;29;20059;-72
2022/04/11 00:30:23;;;;;;;9.10;4.72;;;6.30;99.90;;;;;;4914051;29;20115;-71
2022/04/11 00:32:49;;;;;;;8.73;5.10;;;6.30;99.90;;;;;;4914962;29;20044;-70
2022/04/11 00:35:16;;;;;;;14.98;6.28;;;6.30;99.90;;;;;;4913112;29;20528;-70
2022/04/11 00:37:43;;;;;;;8.15;4.88;;;6.30;99.90;;;;;;4914686;29;20048;-71
2022/04/11 00:40:10;;;;;;;10.65;6.05;;;6.40;99.90;;;;;;4914325;29;20056;-71
2022/04/11 00:42:37;;;;;;;9.35;5.85;;;6.30;99.90;;;;;;4914197;29;20048;-70
2022/04/11 00:45:05;;;;;;;8.95;5.28;;;6.30;99.90;;;;;;4913457;29;20040;-70
2022/04/11 00:47:32;;;;;;;11.82;6.00;;;6.30;99.90;;;;;;4914576;29;20084;-69
2022/04/11 00:50:00;;;;;;;7.25;5.07;;;6.40;99.90;;;;;;4914253;29;20424;-71
2022/04/11 00:52:28;;;;;;;9.90;6.05;;;6.40;99.90;;;;;;4912752;29;20055;-70
2022/04/11 00:54:55;;;;;;;12.70;5.18;;;6.40;99.90;;;;;;4912735;29;20657;-75
2022/04/11 00:57:22;;;;;;;9.60;5.50;;;6.40;99.90;;;;;;4913970;29;20044;-71
2022/04/11 00:59:48;;;;;;;8.98;5.20;;;6.40;99.90;;;;;;4895365;29;20052;-71
2022/04/11 01:02:15;;;;;;;10.35;5.20;;;6.40;99.90;;;;;;4913354;29;20063;-75
2022/04/11 01:04:42;;;;;;;7.35;5.13;;;6.40;99.90;;;;;;4914770;29;20135;-70
2022/04/11 01:07:14;;;;;;;13.45;6.72;;;6.40;99.90;;;;;;4911157;29;20059;-70
2022/04/11 01:09:41;;;;;;;8.27;5.15;;;6.40;99.90;;;;;;4913695;29;20052;-71
2022/04/11 01:12:10;;;;;;;10.25;5.97;;;6.40;99.90;;;;;;4918203;29;20067;-70
2022/04/11 01:14:37;;;;;;;10.82;5.50;;;6.30;99.90;;;;;;4917036;29;20048;-70
2022/04/11 01:17:04;;;;;;;7.70;5.30;;;6.30;99.90;;;;;;4916993;29;20368;-70
2022/04/11 01:19:31;;;;;;;11.60;6.10;;;6.30;99.90;;;;;;4917711;29;20059;-70
2022/04/11 01:21:58;;;;;;;9.07;5.45;;;6.30;99.90;;;;;;4918731;29;20068;-70
2022/04/11 01:24:24;;;;;;;9.65;5.78;;;6.30;99.90;;;;;;4917070;29;20056;-70
2022/04/11 01:26:51;;;;;;;16.05;6.35;;;6.20;99.90;;;;;;4910509;29;20053;-70
2022/04/11 01:29:18;;;;;;;11.10;5.50;;;6.20;99.90;;;;;;4918295;29;20044;-70
2022/04/11 01:31:45;;;;;;;11.13;6.15;;;6.20;99.90;;;;;;4917024;29;20083;-71
2022/04/11 01:34:12;;;;;;;10.95;6.78;;;6.20;99.90;;;;;;4916527;29;20078;-69
2022/04/11 01:36:39;;;;;;;10.63;5.60;;;6.20;99.90;;;;;;4914141;29;20063;-70
2022/04/11 01:39:06;;;;;;;11.23;5.95;;;6.10;99.90;;;;;;4918075;29;20052;-70
2022/04/11 01:41:33;;;;;;;15.45;5.93;;;6.10;99.90;;;;;;4917620;29;20063;-70
2022/04/11 01:43:59;;;;;;;10.70;6.28;;;6.10;99.90;;;;;;4918014;29;20048;-71
2022/04/11 01:46:26;;;;;;;8.68;5.22;;;6.20;99.90;;;;;;4915924;29;20058;-70
2022/04/11 01:48:53;;;;;;;14.13;7.60;;;6.20;99.90;;;;;;4903059;29;20059;-70
2022/04/11 01:51:20;;;;;;;12.10;5.95;;;6.20;99.90;;;;;;4929051;29;20039;-70
2022/04/11 01:53:47;;;;;;;11.23;6.65;;;6.10;99.90;;;;;;4922691;29;20056;-73
2022/04/11 01:56:14;;;;;;;10.52;6.75;;;6.10;99.90;;;;;;4916252;29;20055;-70
2022/04/11 01:58:41;;;;;;;10.52;6.63;;;6.10;99.90;;;;;;4917009;29;20051;-70
2022/04/11 02:01:07;;;;;;;8.60;5.78;;;6.10;99.90;;;;;;4916624;29;20052;-70
2022/04/11 02:03:34;;;;;;;9.80;6.47;;;6.10;99.90;;;;;;4914172;29;20048;-71
2022/04/11 02:06:02;;;;;;;12.73;7.05;;;6.10;99.90;;;;;;4915377;29;20054;-70
2022/04/11 02:08:29;;;;;;;15.80;6.50;;;6.00;99.90;;;;;;4912154;29;20052;-71
2022/04/11 02:10:56;;;;;;;13.55;6.72;;;6.00;99.90;;;;;;4915963;29;20091;-71
2022/04/11 02:13:24;;;;;;;10.48;6.68;;;6.00;99.90;;;;;;4917290;29;20079;-70
2022/04/11 02:15:51;;;;;;;9.98;6.57;;;6.00;99.90;;;;;;4914476;29;20048;-70
2022/04/11 02:18:18;;;;;;;11.52;6.40;;;5.90;99.90;;;;;;4915048;29;20129;-78
2022/04/11 02:20:45;;;;;;;11.80;6.82;;;5.90;99.90;;;;;;4916042;29;20052;-70
2022/04/11 02:23:12;;;;;;;12.68;6.10;;;5.90;99.90;;;;;;4916509;29;20436;-71
2022/04/11 02:25:40;;;;;;;9.52;6.47;;;5.80;99.90;;;;;;4915877;29;20488;-71
2022/04/11 02:28:07;;;;;;;8.25;6.15;;;5.80;99.90;;;;;;4915975;29;20075;-71
2022/04/11 02:30:34;;;;;;;10.18;6.00;;;5.70;99.90;;;;;;4914262;29;20107;-71
2022/04/11 02:33:00;;;;;;;11.73;6.47;;;5.70;99.90;;;;;;4917072;29;20044;-70
2022/04/11 02:35:27;;;;;;;13.52;7.53;;;5.70;99.90;;;;;;4916753;29;20051;-70
2022/04/11 02:37:54;;;;;;;13.50;6.82;;;5.60;99.90;;;;;;4915678;29;20048;-70
2022/04/11 02:40:21;;;;;;;10.82;6.82;;;5.60;99.90;;;;;;4917183;29;20052;-70
2022/04/11 02:42:48;;;;;;;13.38;6.60;;;5.60;99.90;;;;;;4914620;29;20052;-70
2022/04/11 02:45:16;;;;;;;11.93;7.07;;;5.50;99.90;;;;;;4915559;29;20416;-71
2022/04/11 02:47:43;;;;;;;11.82;6.47;;;5.50;99.90;;;;;;4920378;29;20130;-71
2022/04/11 02:50:10;;;;;;;13.05;7.75;;;5.40;99.90;;;;;;4899702;29;20063;-71
2022/04/11 02:52:37;;;;;;;12.55;6.47;;;5.40;99.90;;;;;;4912259;29;20044;-70
2022/04/11 02:55:04;;;;;;;9.35;7.45;;;5.30;99.90;;;;;;4918739;29;20048;-70
2022/04/11 02:57:31;;;;;;;12.82;6.93;;;5.30;99.90;;;;;;4917003;29;20054;-70
2022/04/11 02:59:58;;;;;;;11.65;6.65;;;5.20;99.90;;;;;;4900541;29;20051;-70
2022/04/11 03:02:25;;;;;;;13.48;7.18;;;5.10;99.90;;;;;;4916817;29;20396;-70
2022/04/11 03:04:53;;;;;;;10.35;6.65;;;5.10;99.90;;;;;;4916069;29;20052;-70
2022/04/11 03:07:20;;;;;;;12.30;7.75;;;5.10;99.90;;;;;;4917880;29;20059;-70
2022/04/11 03:09:47;;;;;;;17.20;7.05;;;5.10;99.90;;;;;;4914401;29;20052;-70
2022/04/11 03:12:14;;;;;;;12.63;6.63;;;5.00;99.90;;;;;;4915798;29;20131;-75
2022/04/11 03:14:41;;;;;;;9.75;7.18;;;5.00;99.90;;;;;;4917487;29;20048;-70
2022/04/11 03:17:08;;;;;;;12.80;6.60;;;5.00;99.90;;;;;;4918763;29;20166;-70
2022/04/11 03:19:35;;;;;;;13.90;7.07;;;5.00;99.90;;;;;;4914655;29;20048;-71
2022/04/11 03:22:02;;;;;;;11.60;6.03;;;5.00;99.90;;;;;;4915858;29;20048;-70
2022/04/11 03:24:29;;;;;;;11.20;6.82;;;4.90;99.90;;;;;;4917317;29;20059;-70
2022/04/11 03:26:55;;;;;;;14.10;7.53;;;4.90;99.90;;;;;;4927604;29;20048;-72
2022/04/11 03:29:22;;;;;;;12.80;7.22;;;4.90;99.90;;;;;;4897476;29;20080;-70
2022/04/11 03:31:49;;;;;;;10.23;7.20;;;4.80;99.90;;;;;;4911630;29;20052;-70
2022/04/11 03:34:16;;;;;;;12.32;8.02;;;4.80;99.90;;;;;;4918406;29;20044;-71
2022/04/11 03:36:43;;;;;;;12.00;7.05;;;4.80;99.90;;;;;;4916924;29;20052;-70
2022/04/11 03:39:10;;;;;;;10.93;7.32;;;4.70;99.90;;;;;;4899242;29;20048;-70
2022/04/11 03:41:37;;;;;;;14.55;7.45;;;4.70;99.90;;;;;;4926377;29;20040;-70
2022/04/11 03:44:04;;;;;;;10.48;6.53;;;4.60;99.90;;;;;;4913904;29;20052;-71
2022/04/11 03:46:31;;;;;;;11.30;7.18;;;4.60;99.90;;;;;;4917017;29;20437;-70
2022/04/11 03:48:58;;;;;;;13.18;7.13;;;4.70;99.90;;;;;;4919577;29;20067;-70
2022/04/11 03:51:24;;;;;;;12.32;7.72;;;4.70;99.90;;;;;;4914428;29;20405;-70
2022/04/11 03:53:51;;;;;;;14.02;8.15;;;4.80;99.90;;;;;;4915078;29;20091;-70
2022/04/11 03:56:18;;;;;;;12.07;7.20;;;4.80;99.90;;;;;;4916069;29;20040;-70
2022/04/11 03:58:45;;;;;;;15.50;7.22;;;4.80;99.90;;;;;;4915091;29;20051;-71
2022/04/11 04:01:12;;;;;;;14.18;8.57;;;4.90;99.90;;;;;;4915352;29;20051;-71
2022/04/11 04:03:40;;;;;;;14.05;7.70;;;4.90;99.90;;;;;;4913557;29;20040;-71
2022/04/11 04:06:07;;;;;;;12.70;7.90;;;5.00;99.90;;;;;;4913085;29;20506;-71
2022/04/11 04:08:34;;;;;;;12.50;7.35;;;5.10;99.90;;;;;;4914051;29;20059;-70
2022/04/11 04:11:00;;;;;;;13.70;7.88;;;5.20;99.90;;;;;;4914562;29;20044;-70
2022/04/11 04:13:35;;;;;;;18.35;8.00;;;5.20;99.90;;;;;;4915414;29;20059;-70
2022/04/11 04:16:02;;;;;;;9.85;6.60;;;5.30;99.90;;;;;;4914237;29;20091;-70
2022/04/11 04:18:29;;;;;;;11.13;7.55;;;5.40;99.90;;;;;;4914521;29;20064;-70
2022/04/11 04:20:56;;;;;;;12.07;7.25;;;5.40;99.90;;;;;;4913121;29;20044;-71
2022/04/11 04:23:24;;;;;;;15.13;7.07;;;5.40;99.90;;;;;;4914400;29;20099;-73
2022/04/11 04:25:50;;;;;;;9.75;6.70;;;5.50;99.90;;;;;;4912905;29;20075;-71
2022/04/11 04:28:17;;;;;;;10.77;6.32;;;5.50;99.90;;;;;;4913734;29;20052;-70
2022/04/11 04:30:49;;;;;;;11.15;7.45;;;5.50;99.90;;;;;;4898967;29;20105;-70
2022/04/11 04:33:16;;;;;;;15.27;8.00;;;5.50;99.90;;;;;;4915296;29;20055;-70
2022/04/11 04:35:43;;;;;;;13.40;7.95;;;5.60;99.90;;;;;;4913982;29;20095;-70
2022/04/11 04:38:10;;;;;;;10.55;6.78;;;5.60;99.90;;;;;;4913347;29;20048;-71
2022/04/11 04:40:37;;;;;;;14.60;7.35;;;5.60;99.90;;;;;;4914181;29;20429;-70
2022/04/11 04:43:04;;;;;;;11.48;6.93;;;5.70;99.90;;;;;;4914021;29;20485;-69
2022/04/11 04:45:31;;;;;;;11.02;7.80;;;5.70;99.90;;;;;;4897798;29;20380;-69
2022/04/11 04:47:58;;;;;;;12.98;8.20;;;5.70;99.90;;;;;;4898081;29;20044;-69
2022/04/11 04:50:25;;;;;;;12.18;7.28;;;5.60;99.90;;;;;;4914988;29;20052;-79
2022/04/11 04:52:52;;;;;;;12.82;7.65;;;5.60;99.90;;;;;;4913718;29;20489;-69
2022/04/11 04:55:19;;;;;;;10.30;6.57;;;5.50;99.90;;;;;;4914502;29;20051;-70
2022/04/11 04:57:45;;;;;;;12.27;7.65;;;5.40;99.90;;;;;;4913859;29;20063;-70
2022/04/11 05:00:13;;;;;;;11.68;6.80;;;5.40;99.90;;;;;;4913888;29;20044;-70
2022/04/11 05:02:39;;;;;;;13.60;7.38;;;5.30;99.90;;;;;;4914880;29;20059;-70
2022/04/11 05:05:07;;;;;;;10.85;7.10;;;5.30;99.90;;;;;;4914383;29;20048;-70
2022/04/11 05:07:34;;;;;;;11.88;6.65;;;5.20;99.90;;;;;;4913158;29;20059;-69
2022/04/11 05:10:08;;;;;;;12.07;7.45;;;5.10;99.90;;;;;;4914336;29;20051;-71
2022/04/11 05:12:45;;;;;;;12.32;6.70;;;5.10;99.90;;;;;;4913484;29;20103;-69
2022/04/11 05:15:12;;;;;;;12.60;7.72;;;5.10;99.90;;;;;;4897824;29;20056;-71
2022/04/11 05:17:40;;;;;;;11.00;7.40;;;5.00;99.90;;;;;;4902777;29;20119;-69
2022/04/11 05:20:08;;;;;;;10.25;7.75;;;5.10;99.90;;;;;;4913681;29;20052;-69
2022/04/11 05:22:35;;;;;;;10.43;7.25;;;5.00;99.90;;;;;;4894999;29;20059;-70
2022/04/11 05:25:03;;;;;;;10.02;7.25;;;5.10;99.90;;;;;;4913075;29;20064;-70
2022/04/11 05:27:30;;;;;;;13.13;7.57;;;5.20;99.90;;;;;;4913425;29;20469;-71
2022/04/11 05:29:56;;;;;;;12.43;6.70;;;5.20;99.90;;;;;;4898354;29;20058;-69
2022/04/11 05:32:23;;;;;;;10.00;6.78;;;5.30;99.90;;;;;;4913839;29;20049;-70
2022/04/11 05:34:50;;;;;;;13.25;7.10;;;5.40;99.90;;;;;;4914660;29;20056;-69
2022/04/11 05:37:17;;;;;;;12.20;7.00;;;5.50;99.90;;;;;;4914026;29;21038;-69
2022/04/11 05:39:44;;;;;;;10.43;6.88;;;5.60;99.90;;;;;;4914294;29;20048;-69
2022/04/11 05:42:11;;;;;;;8.23;5.90;;;5.70;99.90;;;;;;4914950;29;20052;-70
2022/04/11 05:44:38;;;;;;;14.70;7.75;;;5.80;99.90;;;;;;4914774;29;20052;-69
2022/04/11 05:47:05;;;;;;;10.07;7.15;;;5.90;99.90;;;;;;4914221;29;20052;-77
2022/04/11 05:49:32;;;;;;;9.82;6.55;;;6.00;99.90;;;;;;4913557;29;20400;-67
2022/04/11 05:51:58;;;;;;;14.07;8.48;;;6.10;99.90;;;;;;4913538;29;20103;-67
2022/04/11 05:54:25;;;;;;;25.17;17.17;;;6.20;99.90;;;;;;4913864;29;20048;-67
2022/04/11 05:56:55;;;;;;;14.10;9.35;;;6.40;99.90;;;;;;4917754;29;20485;-69
2022/04/11 05:59:22;;;;;;;12.27;6.88;;;6.50;99.90;;;;;;4917763;29;20182;-70
2022/04/11 06:01:49;;;;;;;10.45;6.40;;;6.60;99.90;;;;;;4914216;29;20048;-69
2022/04/11 06:04:16;;;;;;;13.00;6.88;;;6.70;99.90;;;;;;4914547;29;20228;-72
2022/04/11 06:06:43;;;;;;;10.52;6.22;;;6.80;99.90;;;;;;4914101;29;20056;-68
2022/04/11 06:09:10;;;;;;;10.73;6.57;;;6.80;99.90;;;;;;4915362;29;20051;-72
2022/04/11 06:11:39;;;;;;;13.07;6.40;;;7.00;99.90;;;;;;4899259;29;20104;-66
2022/04/11 06:14:06;;;;;;;18.75;13.23;;;7.10;99.90;;;;;;4913138;29;20066;-70
2022/04/11 06:16:33;;;;;;;11.77;7.07;;;7.20;99.90;;;;;;4915828;29;20071;-70
2022/04/11 06:19:00;;;;;;;9.35;6.10;;;7.30;99.90;;;;;;4909900;29;20364;-73
2022/04/11 06:21:27;;;;;;;14.98;8.20;;;7.40;99.90;;;;;;4914771;29;20507;-70
2022/04/11 06:23:54;;;;;;;521.25;371.30;;;7.50;99.90;;;;;;4915120;29;20052;-67
2022/04/11 06:26:21;;;;;;;44.20;33.50;;;7.50;99.90;;;;;;4915217;29;20774;-69
2022/04/11 06:28:48;;;;;;;24.25;14.52;;;7.60;99.90;;;;;;4914099;29;20056;-73
2022/04/11 06:31:15;;;;;;;11.70;7.22;;;7.70;99.90;;;;;;4913802;29;20593;-73
2022/04/11 06:33:42;;;;;;;9.18;6.13;;;7.80;99.90;;;;;;4915656;29;20063;-73
2022/04/11 06:36:16;;;;;;;10.57;5.40;;;7.80;99.90;;;;;;4896369;29;20048;-72
2022/04/11 06:38:43;;;;;;;14.07;6.85;;;7.90;99.90;;;;;;4896704;29;20060;-73
2022/04/11 06:41:10;;;;;;;7.07;4.88;;;8.00;99.90;;;;;;4902511;29;20060;-73
2022/04/11 06:43:42;;;;;;;8.45;5.25;;;8.00;99.90;;;;;;4914547;29;20052;-72
2022/04/11 06:46:11;;;;;;;7.53;4.82;;;8.10;99.90;;;;;;4913770;29;20088;-70
2022/04/11 06:48:38;;;;;;;9.68;6.10;;;8.20;99.90;;;;;;4912774;29;20088;-71
2022/04/11 06:51:04;;;;;;;8.73;5.40;;;8.30;99.90;;;;;;4912598;29;20135;-71
2022/04/11 06:53:31;;;;;;;8.85;4.60;;;8.40;99.90;;;;;;4914119;29;20048;-73
2022/04/11 06:55:58;;;;;;;8.30;4.95;;;8.50;99.90;;;;;;4914737;29;20416;-71
2022/04/11 06:58:27;;;;;;;7.60;5.30;;;8.70;99.90;;;;;;4913991;29;20142;-72
2022/04/11 07:00:54;;;;;;;8.27;5.22;;;8.80;98.60;;;;;;4914832;29;20056;-71
2022/04/11 07:03:21;;;;;;;8.98;4.70;;;8.90;97.60;;;;;;4913601;29;20483;-72
2022/04/11 07:05:47;;;;;;;7.63;3.75;;;9.10;97.20;;;;;;4928176;29;20056;-70
2022/04/11 07:08:14;;;;;;;9.88;3.78;;;9.20;96.00;;;;;;4912999;29;20135;-73
2022/04/11 07:10:44;;;;;;;7.00;3.95;;;9.30;95.20;;;;;;4911384;29;20051;-70
2022/04/11 07:13:11;;;;;;;7.63;3.97;;;9.40;93.90;;;;;;4914781;29;20786;-68
2022/04/11 07:15:38;;;;;;;6.30;3.38;;;9.50;93.40;;;;;;4916383;29;20131;-73
2022/04/11 07:18:06;;;;;;;9.63;4.97;;;9.50;92.70;;;;;;4908766;29;20516;-72
2022/04/11 07:20:33;;;;;;;8.73;4.47;;;9.50;92.00;;;;;;4911921;29;20060;-72
2022/04/11 07:22:59;;;;;;;5.85;3.67;;;9.50;91.50;;;;;;4914798;29;20048;-71
2022/04/11 07:25:28;;;;;;;6.07;4.03;;;9.50;91.20;;;;;;4914524;29;20083;-72
2022/04/11 07:27:56;;;;;;;9.32;3.92;;;9.60;91.70;;;;;;4914488;29;20055;-66
2022/04/11 07:30:23;;;;;;;5.13;3.78;;;9.80;90.60;;;;;;4911911;29;20044;-66
2022/04/11 07:32:50;;;;;;;9.40;5.68;;;9.90;88.10;;;;;;4913028;29;20155;-69
2022/04/11 07:35:17;;;;;;;6.20;3.15;;;10.00;87.30;;;;;;4911996;29;20044;-73
2022/04/11 07:37:44;;;;;;;7.15;3.50;;;10.10;86.40;;;;;;4913601;29;20052;-71
2022/04/11 07:40:11;;;;;;;6.07;4.03;;;10.20;87.10;;;;;;4913373;29;20044;-72
2022/04/11 07:42:38;;;;;;;8.02;3.67;;;10.30;84.10;;;;;;4896844;29;20056;-74
2022/04/11 07:45:05;;;;;;;7.50;4.38;;;10.40;85.30;;;;;;4927937;29;20044;-77
2022/04/11 07:47:32;;;;;;;10.85;7.28;;;10.50;82.70;;;;;;4914677;29;20058;-75
2022/04/11 07:50:05;;;;;;;6.82;4.30;;;10.60;81.90;;;;;;4913428;29;20063;-72
2022/04/11 07:52:32;;;;;;;6.28;3.67;;;10.80;80.70;;;;;;4910170;29;20048;-74
2022/04/11 07:54:59;;;;;;;6.68;3.33;;;10.90;79.60;;;;;;4912016;29;20048;-71
2022/04/11 07:57:26;;;;;;;6.72;3.47;;;11.10;79.40;;;;;;4913962;29;20077;-72
2022/04/11 08:00:14;;;;;;;6.20;4.22;;;11.20;77.80;;;;;;4915208;29;20523;-71
2022/04/11 08:02:41;;;;;;;7.28;3.17;;;11.30;76.20;;;;;;4915572;29;20131;-73
2022/04/11 08:05:08;;;;;;;6.78;3.15;;;11.30;77.20;;;;;;4914280;29;20067;-74
2022/04/11 08:07:35;;;;;;;8.55;3.65;;;11.40;76.20;;;;;;4915254;29;20091;-74
2022/04/11 08:10:03;;;;;;;11.07;5.47;;;11.40;75.20;;;;;;4899151;29;20052;-74
2022/04/11 08:12:30;;;;;;;6.07;3.08;;;11.40;75.60;;;;;;4915050;29;20048;-74
2022/04/11 08:15:00;;;;;;;;;;;11.50;77.10;;;;;;4916349;29;20086;-75
2022/04/11 08:17:27;;;;;;;6.43;3.15;;;11.70;74.30;;;;;;4914228;29;19934;-75
2022/04/11 08:19:53;;;;;;;5.57;2.75;;;11.70;75.00;;;;;;4914369;29;20052;-75
2022/04/11 08:22:20;;;;;;;5.88;3.03;;;11.70;72.80;;;;;;4915644;29;20508;-74
2022/04/11 08:24:47;;;;;;;3.85;2.80;;;11.70;73.60;;;;;;4915952;29;20048;-74
2022/04/11 08:27:15;;;;;;;4.30;2.85;;;11.80;72.10;;;;;;4915720;29;20082;-74
2022/04/11 08:29:47;;;;;;;7.63;3.33;;;11.80;71.10;;;;;;4915682;29;20058;-74
2022/04/11 08:32:14;;;;;;;11.80;7.25;;;11.80;70.10;;;;;;4916000;29;20048;-72
2022/04/11 08:34:41;;;;;;;8.20;4.75;;;11.90;71.70;;;;;;4915581;29;20044;-78
2022/04/11 08:37:07;;;;;;;10.52;4.47;;;11.90;71.50;;;;;;4914656;29;20054;-76
2022/04/11 08:39:34;;;;;;;4.95;2.83;;;12.00;71.00;;;;;;4899213;29;20059;-77
2022/04/11 08:42:01;;;;;;;7.28;2.75;;;12.00;70.30;;;;;;4915711;29;20048;-77
2022/04/11 08:44:34;;;;;;;6.05;2.80;;;12.00;70.90;;;;;;4915809;29;20079;-77
2022/04/11 08:47:02;;;;;;;5.65;2.97;;;12.00;70.20;;;;;;4915748;29;20104;-77
2022/04/11 08:49:32;;;;;;;6.57;3.17;;;12.10;70.40;;;;;;4915809;29;20059;-77
2022/04/11 08:51:58;;;;;;;4.53;2.47;;;12.30;70.40;;;;;;4915609;29;20052;-77
2022/04/11 08:54:26;;;;;;;5.60;2.97;;;12.40;69.30;;;;;;4914205;29;20730;-77
2022/04/11 08:56:52;;;;;;;5.60;3.17;;;12.40;67.60;;;;;;4898412;29;20569;-78
2022/04/11 08:59:19;;;;;;;6.13;2.40;;;12.60;69.50;;;;;;4915336;29;20523;-78
2022/04/11 09:01:46;;;;;;;5.38;2.30;;;12.70;68.30;;;;;;4914336;29;20056;-77
2022/04/11 09:04:13;;;;;;;8.82;3.28;;;12.80;67.20;;;;;;4915416;29;20377;-77
2022/04/11 09:06:40;;;;;;;7.25;3.15;;;12.90;67.70;;;;;;4898576;29;20048;-77
2022/04/11 09:09:07;;;;;;;4.53;2.38;;;13.10;66.10;;;;;;4914444;29;20051;-75
2022/04/11 09:11:35;;;;;;;12.38;6.35;;;13.20;65.40;;;;;;4915458;29;20048;-74
2022/04/11 09:14:06;;;;;;;4.32;2.55;;;13.30;64.60;;;;;;4915713;29;20160;-75
2022/04/11 09:16:51;;;;;;;6.95;2.97;;;13.30;64.20;;;;;;4915733;29;20048;-75
2022/04/11 09:19:26;;;;;;;7.28;4.88;;;13.40;64.30;;;;;;4914064;29;20048;-70
2022/04/11 09:22:15;;;;;;;6.90;4.13;;;13.50;63.90;;;;;;4901675;29;20087;-71
2022/04/11 09:24:43;;;;;;;5.53;3.17;;;13.50;62.50;;;;;;4898851;29;20079;-70
2022/04/11 09:27:10;;;;;;;4.10;2.00;;;13.60;64.00;;;;;;4913988;29;20124;-70
2022/04/11 09:29:42;;;;;;;5.28;2.33;;;13.70;62.50;;;;;;4898217;29;20060;-69
2022/04/11 09:32:09;;;;;;;3.03;1.73;;;13.80;62.10;;;;;;4901374;29;20059;-68
2022/04/11 09:34:36;;;;;;;5.15;2.53;;;13.80;61.50;;;;;;4918116;29;20063;-73
2022/04/11 09:37:03;;;;;;;3.75;2.10;;;13.80;60.40;;;;;;4917330;29;20052;-70
2022/04/11 09:39:32;;;;;;;5.47;2.33;;;13.90;61.10;;;;;;4917313;29;20066;-68
2022/04/11 09:42:03;;;;;;;4.43;2.35;;;14.00;60.80;;;;;;4917363;29;20074;-67
2022/04/11 09:44:34;;;;;;;5.93;2.22;;;14.00;60.00;;;;;;4916950;29;20092;-71
2022/04/11 09:47:14;;;;;;;14.70;7.97;;;14.10;57.80;;;;;;4903830;29;20080;-68
2022/04/11 09:49:41;;;;;;;7.70;2.88;;;14.20;58.60;;;;;;4916666;29;20084;-74
2022/04/11 09:52:13;;;;;;;3.60;1.85;;;14.10;57.00;;;;;;4901078;29;20060;-72
2022/04/11 09:54:42;;;;;;;6.97;3.53;;;14.10;57.30;;;;;;4916957;29;20048;-75
2022/04/11 09:57:11;;;;;;;4.30;2.67;;;14.00;57.40;;;;;;4917902;29;20115;-72
2022/04/11 09:59:39;;;;;;;4.15;2.97;;;14.00;58.00;;;;;;4900151;29;20493;-74
2022/04/11 10:02:26;;;;;;;4.00;1.73;;;14.00;58.20;;;;;;4930089;29;20091;-69
2022/04/11 10:04:53;;;;;;;3.58;1.60;;;14.10;58.50;;;;;;4900395;29;20104;-73
2022/04/11 10:07:21;;;;;;;5.47;1.40;;;14.10;57.10;;;;;;4917794;29;20055;-69
2022/04/11 10:09:48;;;;;;;2.85;1.60;;;14.10;56.10;;;;;;4917958;29;20056;-69
2022/04/11 10:12:16;;;;;;;4.22;1.83;;;14.20;56.80;;;;;;4901190;29;20044;-71
2022/04/11 10:14:43;;;;;;;2.90;1.55;;;14.30;56.70;;;;;;4916757;29;20048;-70
2022/04/11 10:17:10;;;;;;;8.30;1.30;;;14.40;56.30;;;;;;4900926;29;20055;-68
2022/04/11 10:19:38;;;;;;;2.95;1.48;;;14.50;57.60;;;;;;4917311;29;20071;-68
2022/04/11 10:22:07;;;;;;;4.53;2.50;;;14.60;55.70;;;;;;4900672;29;20051;-65
2022/04/11 10:25:03;;;;;;;3.33;2.00;;;14.70;56.40;;;;;;4916639;29;20048;-67
2022/04/11 10:27:29;;;;;;;5.00;2.30;;;14.70;53.40;;;;;;4916518;29;20063;-70
2022/04/11 10:29:56;;;;;;;3.38;1.52;;;14.60;55.30;;;;;;4916021;29;20385;-69
2022/04/11 10:32:25;;;;;;;5.75;2.03;;;14.60;55.50;;;;;;4916843;29;20099;-69
2022/04/11 10:34:58;;;;;;;4.07;2.13;;;14.70;54.70;;;;;;4900453;29;20059;-70
2022/04/11 10:37:26;;;;;;;8.60;5.28;;;14.60;53.90;;;;;;4917045;29;20052;-67
2022/04/11 10:39:53;;;;;;;4.28;2.40;;;14.70;53.80;;;;;;4915734;29;20176;-68
2022/04/11 10:42:22;;;;;;;3.90;1.80;;;14.70;54.30;;;;;;4915179;29;20429;-70
2022/04/11 10:44:54;;;;;;;2.78;1.27;;;14.70;52.50;;;;;;4916882;29;20539;-69
2022/04/11 10:47:31;;;;;;;4.45;1.50;;;14.80;55.20;;;;;;4915126;29;20492;-69
2022/04/11 10:49:58;;;;;;;2.95;2.08;;;15.00;53.00;;;;;;4895611;29;20064;-69
2022/04/11 10:52:32;;;;;;;2.60;1.60;;;14.90;52.70;;;;;;4897904;29;20158;-70
2022/04/11 10:55:05;;;;;;;5.53;1.67;;;14.90;54.40;;;;;;4898230;29;20451;-70
2022/04/11 10:57:33;;;;;;;3.10;1.40;;;15.00;53.20;;;;;;4907328;29;20048;-73
2022/04/11 11:00:15;;;;;;;2.50;1.55;;;15.00;53.80;;;;;;4914626;29;20052;-73
2022/04/11 11:05:30;;;;;;;3.72;2.20;;;15.00;52.90;;;;;;4915881;29;20048;-74
2022/04/11 11:08:09;;;;;;;3.40;1.60;;;15.10;52.50;;;;;;4915419;29;20139;-75
2022/04/11 11:10:43;;;;;;;5.55;1.92;;;15.10;52.80;;;;;;4914755;29;20386;-67
2022/04/11 11:13:34;;;;;;;2.10;1.48;;;15.10;53.50;;;;;;4916131;29;20415;-73
2022/04/11 11:16:07;;;;;;;2.75;1.70;;;15.10;52.00;;;;;;4916217;29;20485;-69
2022/04/11 11:18:53;;;;;;;3.28;1.73;;;15.10;52.70;;;;;;4912788;29;20044;-70
2022/04/11 11:21:48;;;;;;;3.88;1.73;;;15.10;52.60;;;;;;4915118;29;20054;-69
2022/04/11 11:24:16;;;;;;;3.30;1.80;;;15.20;53.20;;;;;;4913310;29;20048;-69
2022/04/11 11:26:46;;;;;;;3.83;1.75;;;15.40;53.00;;;;;;4915368;29;20361;-72
2022/04/11 11:29:18;;;;;;;3.70;1.88;;;15.60;54.00;;;;;;4914429;29;20084;-71
2022/04/11 11:31:46;;;;;;;3.47;1.50;;;15.60;52.10;;;;;;4914822;29;20757;-69
2022/04/11 11:34:14;;;;;;;5.97;2.00;;;15.70;52.70;;;;;;4899151;29;20052;-69
2022/04/11 11:36:41;;;;;;;5.28;1.67;;;15.70;51.80;;;;;;4913335;29;20091;-72
2022/04/11 11:39:16;;;;;;;5.50;1.70;;;15.70;53.10;;;;;;4914585;29;20080;-71
2022/04/11 11:41:43;;;;;;;5.47;2.58;;;15.70;51.30;;;;;;4915696;29;20052;-72
2022/04/11 11:44:10;;;;;;;7.32;2.88;;;15.80;53.80;;;;;;4898458;29;20044;-72
2022/04/11 11:46:57;;;;;;;5.85;2.20;;;15.80;52.20;;;;;;4915644;29;20092;-72
2022/04/11 11:49:24;;;;;;;3.35;2.50;;;15.90;50.90;;;;;;4912325;29;20496;-73
2022/04/11 11:51:51;;;;;;;3.95;2.03;;;15.90;51.40;;;;;;4898218;29;20048;-68
2022/04/11 11:54:35;;;;;;;4.78;1.90;;;15.90;51.10;;;;;;4914707;29;20048;-67
2022/04/11 11:57:03;;;;;;;3.75;1.50;;;16.00;51.60;;;;;;4911742;29;20385;-73
2022/04/11 11:59:30;;;;;;;5.30;2.05;;;16.20;51.50;;;;;;4912195;29;20140;-69
2022/04/11 12:04:42;;;;;;;3.08;2.03;;;16.30;51.10;;;;;;4913535;29;20052;-73
2022/04/11 12:07:09;;;;;;;2.60;1.80;;;16.30;50.20;;;;;;4913412;29;20157;-66
2022/04/11 12:09:37;;;;;;;3.10;2.03;;;16.30;50.10;;;;;;4911566;29;20044;-69
2022/04/11 12:12:04;;;;;;;4.63;2.13;;;16.40;51.70;;;;;;4896904;29;20078;-70
2022/04/11 12:15:01;;;;;;;3.08;2.10;;;16.40;51.40;;;;;;4896045;29;20052;-70
2022/04/11 12:17:35;;;;;;;3.47;2.00;;;16.40;50.40;;;;;;4897076;29;20094;-70
2022/04/11 12:20:15;;;;;;;5.07;1.88;;;16.50;50.10;;;;;;4911983;29;20057;-70
2022/04/11 12:22:59;;;;;;;4.35;2.47;;;16.50;49.50;;;;;;4912355;29;20055;-68
2022/04/11 12:25:28;;;;;;;3.95;2.10;;;16.60;49.30;;;;;;4910424;29;20052;-68
2022/04/11 12:28:27;;;;;;;3.03;1.90;;;16.50;49.90;;;;;;4913689;29;20052;-66
2022/04/11 12:31:03;;;;;;;3.92;1.90;;;16.40;49.80;;;;;;4918636;29;20447;-68
2022/04/11 12:33:34;;;;;;;2.53;1.80;;;16.50;50.30;;;;;;4895151;29;20334;-68
2022/04/11 12:36:08;;;;;;;2.67;1.73;;;16.50;49.80;;;;;;4905831;29;20056;-69
2022/04/11 12:38:54;;;;;;;3.42;2.15;;;16.60;50.80;;;;;;4910810;29;20492;-69
2022/04/11 12:41:40;;;;;;;5.45;2.10;;;16.70;49.10;;;;;;4911859;29;20445;-72
2022/04/11 12:44:13;;;;;;;3.25;2.10;;;16.60;50.50;;;;;;4897994;29;20404;-69
2022/04/11 12:46:45;;;;;;;3.83;2.40;;;16.60;49.90;;;;;;4914058;29;20048;-70
2022/04/11 12:49:16;;;;;;;4.75;2.10;;;16.50;50.30;;;;;;4913073;29;20500;-72
2022/04/11 12:51:56;;;;;;;6.20;2.78;;;16.50;49.60;;;;;;4912250;29;20052;-73
2022/04/11 12:54:23;;;;;;;8.57;2.65;;;16.40;50.60;;;;;;4912647;29;20489;-71
2022/04/11 12:56:50;;;;;;;8.57;2.40;;;16.50;51.00;;;;;;4913495;29;20052;-70
2022/04/11 12:59:30;;;;;;;5.55;3.42;;;16.60;49.90;;;;;;4912956;29;20048;-71
2022/04/11 13:02:06;;;;;;;14.77;10.48;;;16.60;49.20;;;;;;4913812;29;20052;-72